Meteógrafos Informações Meteorológicas em tempo real
Aeroporto Marechal Cunha Machado
15-12-2019 22:56

Temperatura atual: 27 graus 80 F    Umidade relativa: 83 %
Velocidade do vento: 07 nós 12 Km/h    Direção: 030 graus NNE
Ajuste do altímetro ..: 1011 HPA
Visibilidade: Ótima    Tempo presente: Não Disponível

Observação
Poucas nuvens a 1700 Pés.
Data Hora BRTTempo°CUmidadePressãoVentoVisib.
15/12 - 22:56   Não Disponível 27° 83% 1011 Norte-nordeste/12 km/h OK
15/12 - 21:56   Céu Limpo 27° 88% 1011 Nordeste/12 km/h OK
15/12 - 20:56   Céu Limpo 27° 83% 1010 Norte-nordeste/16 km/h OK
15/12 - 19:56   Céu Limpo 27° 83% 1010 Norte-nordeste/16 km/h OK
15/12 - 18:56   Céu Limpo 28° 83% 1009 Norte-nordeste/19 km/h OK
15/12 - 17:55   Não Disponível 28° 83% 1009 Norte-nordeste/18 km/h OK
15/12 - 16:56   Poucas nuvens esparsas 29° 74% 1009 Nordeste/21 km/h OK
15/12 - 15:56   Parcialmente Nublado 29° 74% 1008 Norte-nordeste/25 km/h OK
15/12 - 14:56   Parcialmente Nublado 30° 70% 1009 Nordeste/21 km/h OK
15/12 - 13:56   Parcialmente Nublado 30° 70% 1009 Nordeste/25 km/h OK
15/12 - 12:56   Parcialmente Nublado 31° 70% 1010 Nordeste/27 km/h OK
15/12 - 11:56   Parcialmente Nublado 30° 70% 1010 Nordeste/23 km/h OK
15/12 - 10:56   Parcialmente Nublado 32° 62% 1011 Nordeste/25 km/h OK
15/12 - 09:56   Parcialmente Nublado 30° 70% 1011 Nordeste/23 km/h OK
15/12 - 08:56   Parcialmente Nublado 29° 74% 1011 Nordeste/21 km/h OK
15/12 - 07:56   Poucas nuvens esparsas 29° 74% 1010 Nordeste/19 km/h OK
15/12 - 06:56   Céu Limpo 28° 79% 1010 Nordeste/14 km/h OK
15/12 - 05:56   Céu Limpo 27° 83% 1009 Norte-nordeste/12 km/h OK
15/12 - 04:56   Céu Limpo 27° 83% 1009 Norte-nordeste/12 km/h OK
15/12 - 03:56   Céu Limpo 27° 83% 1008 Norte-nordeste/16 km/h OK
15/12 - 02:56   Céu Limpo 27° 83% 1009 Nordeste/14 km/h OK
15/12 - 01:56   Céu Limpo 27° 83% 1009 Nordeste/16 km/h OK
15/12 - 00:56   Céu Limpo 27° 83% 1010 Este-nordeste/10 km/h OK
14/12 - 23:56   Céu Limpo 27° 83% 1010 Este-nordeste/10 km/h OK

Termo de Uso  |   Links Úteis  |   Imprensa  |  Anuncie  |  Fale Conosco  |  Versão Celular  |   Política de Privacidade

Apolo11.com - Todos os direitos reservados - 2000 - 2019

"Existem velas que iluminam tudo, menos o próprio candelabro" - Hebbel